createdAt,value
2019-01-09T00:01:25.069Z,2.40
2019-01-09T00:04:34.094Z,2.28
2019-01-09T00:07:23.830Z,2.43
2019-01-09T00:10:13.668Z,2.52
2019-01-09T00:13:04.122Z,2.54
2019-01-09T00:15:53.956Z,2.42
2019-01-09T00:18:43.758Z,2.57
2019-01-09T00:21:33.573Z,2.45
2019-01-09T00:24:35.210Z,2.49
2019-01-09T00:27:17.271Z,2.62
2019-01-09T00:30:07.311Z,2.67
2019-01-09T00:32:57.048Z,2.63
2019-01-09T00:35:39.424Z,2.60
2019-01-09T00:38:29.196Z,2.55
2019-01-09T00:41:18.956Z,2.54
2019-01-09T00:44:08.859Z,2.49
2019-01-09T00:46:58.628Z,2.47
2019-01-09T00:49:48.491Z,2.46
2019-01-09T00:52:38.240Z,2.46
2019-01-09T00:55:28.070Z,2.50
2019-01-09T00:58:18.084Z,2.48
2019-01-09T01:01:26.941Z,2.48
2019-01-09T01:04:54.834Z,2.47
2019-01-09T01:08:13.014Z,2.38
2019-01-09T01:11:15.634Z,2.52
2019-01-09T01:14:43.495Z,2.53
2019-01-09T01:17:46.939Z,2.44
2019-01-09T01:20:49.362Z,2.43
2019-01-09T01:24:17.267Z,2.29
2019-01-09T01:27:45.176Z,2.35
2019-01-09T01:31:13.205Z,2.18
2019-01-09T01:34:01.803Z,2.15
2019-01-09T01:37:10.074Z,2.27
2019-01-09T01:39:52.114Z,2.28
2019-01-09T01:42:47.473Z,2.28
2019-01-09T01:46:02.532Z,2.33
2019-01-09T01:48:58.145Z,2.31
2019-01-09T01:52:26.003Z,2.33
2019-01-09T01:55:27.877Z,2.33
2019-01-09T01:58:27.813Z,2.23
2019-01-09T02:01:29.899Z,2.08
2019-01-09T02:04:57.765Z,1.94
2019-01-09T02:08:25.625Z,1.89
2019-01-09T02:11:27.854Z,1.75
2019-01-09T02:18:21.696Z,1.68
2019-01-09T02:21:23.833Z,1.78
2019-01-09T02:24:47.227Z,1.84
2019-01-09T02:27:59.367Z,1.87
2019-01-09T02:31:27.423Z,1.87
2019-01-09T02:34:17.191Z,1.92
2019-01-09T02:37:06.963Z,1.90
2019-01-09T02:39:56.733Z,1.85
2019-01-09T02:42:46.527Z,1.88
2019-01-09T02:45:36.353Z,1.75
2019-01-09T02:48:45.205Z,1.82
2019-01-09T02:51:34.936Z,1.80
2019-01-09T02:54:24.637Z,1.78
2019-01-09T02:57:14.438Z,1.71
2019-01-09T03:00:04.444Z,1.74
2019-01-09T03:02:54.186Z,1.62
2019-01-09T03:05:43.909Z,1.73
2019-01-09T03:08:26.066Z,1.78
2019-01-09T03:11:15.920Z,1.75
2019-01-09T03:13:59.754Z,1.79
2019-01-09T03:16:49.507Z,1.81
2019-01-09T03:19:32.577Z,1.79
2019-01-09T03:22:22.344Z,1.72
2019-01-09T03:25:12.079Z,1.70
2019-01-09T03:27:56.260Z,1.72
2019-01-09T03:30:39.109Z,1.70
2019-01-09T03:33:28.914Z,1.78
2019-01-09T03:36:18.706Z,1.81
2019-01-09T03:39:08.490Z,1.81
2019-01-09T03:41:58.254Z,1.77
2019-01-09T03:44:48.218Z,1.67
2019-01-09T03:47:38.038Z,1.70
2019-01-09T03:50:10.849Z,1.71
2019-01-09T03:53:00.546Z,1.74
2019-01-09T03:55:43.166Z,1.61
2019-01-09T03:58:32.963Z,1.75
2019-01-09T04:01:38.137Z,1.75
2019-01-09T04:04:20.826Z,1.79
2019-01-09T04:07:10.562Z,1.80
2019-01-09T04:09:41.280Z,1.86
2019-01-09T04:12:30.980Z,1.93
2019-01-09T04:15:13.664Z,1.83
2019-01-09T04:18:03.406Z,1.87
2019-01-09T04:20:46.170Z,1.81
2019-01-09T04:23:35.933Z,1.80
2019-01-09T04:26:17.992Z,1.83
2019-01-09T04:29:07.740Z,1.70
2019-01-09T04:31:50.004Z,1.87
2019-01-09T04:34:39.732Z,1.86
2019-01-09T04:37:22.268Z,1.94
2019-01-09T04:40:12.030Z,1.87
2019-01-09T04:42:54.343Z,1.91
2019-01-09T04:45:44.112Z,1.90
2019-01-09T04:48:27.122Z,1.91
2019-01-09T04:51:16.938Z,1.88
2019-01-09T04:54:06.738Z,1.87
2019-01-09T04:56:56.529Z,1.87
2019-01-09T04:59:46.401Z,1.86
2019-01-09T05:02:36.182Z,1.81
2019-01-09T05:05:25.914Z,1.84
2019-01-09T05:08:15.636Z,1.97
2019-01-09T05:11:05.354Z,1.84
2019-01-09T05:13:47.756Z,1.86
2019-01-09T05:16:37.465Z,1.87
2019-01-09T05:19:21.476Z,1.86
2019-01-09T05:22:11.148Z,1.81
2019-01-09T05:24:53.516Z,1.95
2019-01-09T05:27:43.267Z,2.02
2019-01-09T05:30:25.406Z,2.05
2019-01-09T05:33:15.156Z,1.96
2019-01-09T05:35:57.859Z,1.89
2019-01-09T05:38:48.042Z,1.86
2019-01-09T05:41:50.766Z,1.80
2019-01-09T05:44:34.289Z,1.71
2019-01-09T05:47:24.019Z,1.87
2019-01-09T05:50:06.461Z,1.90
2019-01-09T05:52:56.191Z,1.82
2019-01-09T05:55:38.428Z,1.89
2019-01-09T05:58:28.164Z,1.87
2019-01-09T06:01:10.439Z,1.78
2019-01-09T06:03:41.099Z,1.83
2019-01-09T06:06:31.081Z,1.83
2019-01-09T06:09:20.989Z,1.83
2019-01-09T06:12:10.735Z,1.83
2019-01-09T06:15:00.511Z,1.77
2019-01-09T06:17:50.297Z,1.74
2019-01-09T06:20:40.381Z,1.79
2019-01-09T06:23:30.177Z,1.80
2019-01-09T06:26:19.941Z,1.75
2019-01-09T06:29:02.719Z,1.71
2019-01-09T06:31:52.545Z,1.69
2019-01-09T06:34:54.662Z,1.69
2019-01-09T06:37:36.819Z,1.53
2019-01-09T06:40:07.993Z,1.61
2019-01-09T06:42:57.730Z,1.60
2019-01-09T06:45:39.711Z,1.58
2019-01-09T06:48:29.433Z,1.55
2019-01-09T06:51:11.746Z,1.68
2019-01-09T06:54:01.531Z,1.65
2019-01-09T06:59:54.957Z,1.56
2019-01-09T07:02:37.769Z,1.50
2019-01-09T07:05:27.565Z,1.36
2019-01-09T07:08:17.336Z,1.50
2019-01-09T07:11:07.218Z,1.38
2019-01-09T07:13:56.975Z,1.33
2019-01-09T07:16:46.705Z,1.29
2019-01-09T07:19:33.251Z,1.28
2019-01-09T07:22:16.309Z,1.28
2019-01-09T07:25:06.201Z,1.25
2019-01-09T07:27:56.093Z,1.34
2019-01-09T07:30:45.833Z,1.32
2019-01-09T07:33:35.560Z,1.26
2019-01-09T07:36:18.093Z,1.39
2019-01-09T07:39:08.232Z,1.26
2019-01-09T07:41:57.967Z,1.36
2019-01-09T07:45:00.457Z,1.28
2019-01-09T07:47:43.029Z,1.36
2019-01-09T07:50:32.753Z,1.35
2019-01-09T07:53:14.606Z,1.41
2019-01-09T07:56:04.297Z,1.45
2019-01-09T07:58:47.619Z,1.47
2019-01-09T08:01:37.351Z,1.63
2019-01-09T08:04:20.181Z,1.63
2019-01-09T08:07:09.965Z,1.62
2019-01-09T08:15:45.694Z,1.76
2019-01-09T08:18:35.431Z,1.74
2019-01-09T08:21:19.320Z,1.74
2019-01-09T08:23:50.284Z,1.73
2019-01-09T08:26:40.002Z,1.76
2019-01-09T08:29:24.045Z,1.87
2019-01-09T08:32:06.996Z,1.81
2019-01-09T08:34:56.788Z,1.87
2019-01-09T08:37:46.627Z,1.92
2019-01-09T08:40:44.306Z,1.98
2019-01-09T08:43:34.090Z,1.90
2019-01-09T08:46:24.334Z,1.90
2019-01-09T08:49:14.222Z,1.92
2019-01-09T08:52:03.947Z,2.03
2019-01-09T08:54:53.742Z,2.15
2019-01-09T08:57:43.506Z,2.22
2019-01-09T09:00:33.295Z,1.99
2019-01-09T09:03:23.176Z,2.03
2019-01-09T09:06:12.893Z,1.97
2019-01-09T09:11:59.415Z,1.88
2019-01-09T09:15:08.224Z,1.81
2019-01-09T09:17:50.846Z,1.90
2019-01-09T09:20:40.543Z,2.08
2019-01-09T09:23:23.420Z,2.19
2019-01-09T09:26:13.171Z,2.16
2019-01-09T09:28:55.894Z,2.12
2019-01-09T09:31:45.609Z,2.10
2019-01-09T09:34:28.370Z,2.00
2019-01-09T09:37:19.087Z,1.92
2019-01-09T09:40:02.089Z,1.85
2019-01-09T09:42:51.851Z,1.89
2019-01-09T09:45:33.852Z,1.80
2019-01-09T09:48:23.611Z,1.78
2019-01-09T09:51:05.908Z,1.81
2019-01-09T09:53:55.610Z,1.79
2019-01-09T09:56:39.994Z,1.78
2019-01-09T09:59:29.732Z,1.73
2019-01-09T10:02:12.010Z,1.71
2019-01-09T10:05:01.750Z,1.60
2019-01-09T10:07:44.176Z,1.75
2019-01-09T10:10:53.063Z,1.90
2019-01-09T10:13:35.554Z,1.96
2019-01-09T10:16:25.298Z,1.94
2019-01-09T10:19:07.898Z,1.89
2019-01-09T10:22:16.706Z,2.02
2019-01-09T10:25:05.810Z,2.07
2019-01-09T10:27:55.527Z,2.21
2019-01-09T10:30:37.607Z,2.26
2019-01-09T10:33:27.350Z,2.17
2019-01-09T10:36:09.662Z,2.39
2019-01-09T10:38:59.405Z,2.48
2019-01-09T10:41:41.916Z,2.39
2019-01-09T10:44:31.680Z,2.25
2019-01-09T10:47:15.950Z,2.45
2019-01-09T10:50:05.801Z,2.45
2019-01-09T10:52:49.906Z,2.61
2019-01-09T10:55:39.739Z,2.52
2019-01-09T10:58:22.191Z,2.69
2019-01-09T11:01:11.947Z,2.66
2019-01-09T11:03:54.546Z,2.88
2019-01-09T11:06:44.259Z,2.70
2019-01-09T11:09:26.643Z,2.76
2019-01-09T11:12:08.837Z,2.72
2019-01-09T11:14:58.685Z,2.70
2019-01-09T11:27:01.245Z,2.72
2019-01-09T11:29:50.948Z,2.78
2019-01-09T11:32:33.321Z,2.82
2019-01-09T11:35:24.797Z,2.61
2019-01-09T11:38:07.772Z,2.63
2019-01-09T11:43:56.431Z,2.05
2019-01-09T11:49:32.616Z,2.03
2019-01-09T11:52:22.419Z,2.24
2019-01-09T11:55:13.317Z,2.27
2019-01-09T11:58:03.227Z,2.30
2019-01-09T12:00:53.061Z,2.51
2019-01-09T12:03:42.834Z,2.77
2019-01-09T12:06:32.605Z,2.62
2019-01-09T12:09:22.421Z,2.69
2019-01-09T12:12:12.209Z,2.40
2019-01-09T12:15:02.022Z,2.55
2019-01-09T12:17:51.841Z,2.46
2019-01-09T12:20:41.593Z,2.53
2019-01-09T12:23:50.289Z,2.76
2019-01-09T12:26:39.299Z,2.92
2019-01-09T12:29:29.085Z,2.82
2019-01-09T12:32:11.507Z,2.85
2019-01-09T12:35:01.238Z,3.03
2019-01-09T12:37:43.949Z,2.90
2019-01-09T12:40:14.967Z,2.94
2019-01-09T12:43:04.667Z,2.86
2019-01-09T12:45:50.978Z,2.81
2019-01-09T12:48:33.266Z,2.96
2019-01-09T12:54:05.218Z,3.11
2019-01-09T12:56:54.935Z,3.37
2019-01-09T12:59:37.380Z,3.46
2019-01-09T13:02:27.118Z,3.28
2019-01-09T13:05:17.106Z,3.36
2019-01-09T13:08:06.828Z,3.29
2019-01-09T13:10:52.924Z,3.44
2019-01-09T13:13:42.632Z,3.59
2019-01-09T13:16:26.604Z,3.48
2019-01-09T13:19:16.307Z,3.55
2019-01-09T13:21:58.810Z,3.60
2019-01-09T13:24:48.520Z,3.51
2019-01-09T13:27:31.010Z,3.50
2019-01-09T13:30:22.758Z,3.40
2019-01-09T13:33:05.082Z,3.18
2019-01-09T13:36:13.900Z,3.20
2019-01-09T13:38:55.806Z,3.14
2019-01-09T13:41:45.501Z,3.02
2019-01-09T13:44:27.912Z,3.09
2019-01-09T13:47:17.611Z,2.90
2019-01-09T13:50:01.877Z,3.06
2019-01-09T13:52:51.612Z,3.00
2019-01-09T13:55:34.045Z,2.91
2019-01-09T13:58:23.776Z,2.85
2019-01-09T14:01:13.490Z,2.68
2019-01-09T14:03:55.780Z,2.71
2019-01-09T14:06:45.780Z,2.67
2019-01-09T14:09:29.760Z,2.77
2019-01-09T14:12:19.496Z,2.38
2019-01-09T14:15:01.854Z,2.22
2019-01-09T14:20:35.999Z,2.29
2019-01-09T14:23:25.765Z,2.32
2019-01-09T14:26:08.423Z,2.31
2019-01-09T14:28:58.218Z,2.32
2019-01-09T14:31:48.026Z,2.33
2019-01-09T14:34:37.791Z,2.27
2019-01-09T14:37:27.670Z,2.41
2019-01-09T14:40:17.477Z,2.40
2019-01-09T14:43:07.301Z,2.44
2019-01-09T14:45:57.088Z,2.49
2019-01-09T14:48:46.864Z,2.57
2019-01-09T14:51:55.734Z,2.62
2019-01-09T14:54:45.517Z,2.70
2019-01-09T14:57:35.318Z,2.54
2019-01-09T15:00:19.755Z,2.53
2019-01-09T15:03:09.561Z,2.54
2019-01-09T15:05:59.398Z,2.72
2019-01-09T15:08:49.306Z,2.91
2019-01-09T15:11:39.154Z,2.81
2019-01-09T15:14:28.969Z,2.68
2019-01-09T15:17:18.754Z,2.65
2019-01-09T15:23:04.991Z,2.39
2019-01-09T15:25:54.787Z,2.48
2019-01-09T15:28:44.600Z,2.29
2019-01-09T15:31:53.469Z,2.33
2019-01-09T15:34:43.229Z,2.30
2019-01-09T15:37:25.650Z,2.30
2019-01-09T15:40:09.805Z,2.36
2019-01-09T15:42:59.517Z,2.24
2019-01-09T15:45:42.381Z,2.26
2019-01-09T15:48:32.139Z,2.29
2019-01-09T15:51:14.589Z,2.27
2019-01-09T15:54:04.834Z,2.30
2019-01-09T15:56:48.593Z,2.35
2019-01-09T16:02:39.517Z,2.35
2019-01-09T16:05:29.290Z,2.30
2019-01-09T16:08:12.170Z,2.37
2019-01-09T16:11:01.935Z,2.18
2019-01-09T16:13:44.181Z,2.23
2019-01-09T16:16:33.917Z,2.22
2019-01-09T16:19:16.197Z,2.35
2019-01-09T16:22:06.155Z,2.22
2019-01-09T16:24:48.647Z,2.14
2019-01-09T16:27:38.411Z,2.28
2019-01-09T16:30:23.057Z,2.22
2019-01-09T16:33:12.809Z,2.13
2019-01-09T16:35:55.360Z,2.23
2019-01-09T16:38:45.232Z,2.12
2019-01-09T16:41:27.809Z,2.10
2019-01-09T16:44:17.573Z,2.12
2019-01-09T16:47:00.331Z,2.13
2019-01-09T16:49:50.092Z,2.00
2019-01-09T16:52:32.279Z,2.06
2019-01-09T16:55:22.025Z,1.97
2019-01-09T16:58:04.687Z,1.98
2019-01-09T17:04:05.570Z,1.83
2019-01-09T17:06:52.164Z,1.68
2019-01-09T17:09:34.972Z,1.76
2019-01-09T17:12:24.877Z,1.53
2019-01-09T17:15:28.108Z,0.88
2019-01-09T17:18:10.483Z,0.55
2019-01-09T17:21:00.247Z,-0.07
2019-01-09T17:23:42.529Z,-0.36
2019-01-09T17:26:32.319Z,-0.12
2019-01-09T17:29:14.587Z,0.22
2019-01-09T17:32:04.350Z,0.29
2019-01-09T17:34:46.579Z,0.27
2019-01-09T17:37:36.429Z,0.35
2019-01-09T17:40:18.739Z,0.50
2019-01-09T17:43:08.773Z,0.55
2019-01-09T17:45:50.808Z,0.47
2019-01-09T17:48:40.547Z,0.67
2019-01-09T17:51:26.949Z,0.80
2019-01-09T17:54:16.706Z,0.75
2019-01-09T17:56:59.522Z,0.66
2019-01-09T17:59:49.248Z,0.70
2019-01-09T18:02:31.782Z,0.74
2019-01-09T18:05:21.562Z,1.05
2019-01-09T18:08:10.332Z,1.00
2019-01-09T18:10:57.093Z,0.88
2019-01-09T18:13:39.203Z,0.99
2019-01-09T18:16:28.934Z,0.84
2019-01-09T18:19:11.310Z,1.01
2019-01-09T18:25:02.879Z,1.18
2019-01-09T18:27:52.606Z,0.94
2019-01-09T18:30:43.184Z,0.94
2019-01-09T18:33:54.819Z,1.09
2019-01-09T18:36:57.658Z,1.07
2019-01-09T18:39:59.567Z,1.06
2019-01-09T18:43:01.584Z,0.98
2019-01-09T18:46:05.424Z,0.99
2019-01-09T18:49:33.309Z,1.02
2019-01-09T18:52:47.882Z,1.06
2019-01-09T18:55:30.444Z,1.10
2019-01-09T18:58:20.279Z,1.01
2019-01-09T19:01:10.050Z,1.02
2019-01-09T19:03:53.972Z,1.13
2019-01-09T19:06:43.824Z,1.15
2019-01-09T19:09:46.473Z,1.20
2019-01-09T19:12:29.021Z,1.15
2019-01-09T19:15:19.033Z,1.43
2019-01-09T19:18:05.347Z,1.21
2019-01-09T19:20:56.831Z,1.24
2019-01-09T19:23:39.650Z,1.13
2019-01-09T19:26:29.392Z,1.29
2019-01-09T19:29:13.087Z,1.25
2019-01-09T19:32:03.063Z,1.19
2019-01-09T19:34:45.683Z,1.04
2019-01-09T19:37:35.395Z,1.37
2019-01-09T19:40:17.495Z,1.55
2019-01-09T19:43:07.235Z,1.42
2019-01-09T19:45:57.029Z,1.32
2019-01-09T19:48:39.553Z,1.15
2019-01-09T19:51:29.403Z,1.14
2019-01-09T19:54:19.275Z,1.35
2019-01-09T19:57:09.057Z,1.41
2019-01-09T19:59:58.796Z,1.39
2019-01-09T20:02:41.033Z,1.30
2019-01-09T20:05:30.865Z,1.46
2019-01-09T20:08:20.827Z,1.37
2019-01-09T20:11:10.824Z,1.59
2019-01-09T20:14:00.727Z,1.66
2019-01-09T20:16:50.591Z,1.37
2019-01-09T20:19:40.363Z,1.39
2019-01-09T20:22:31.115Z,1.54
2019-01-09T20:25:13.199Z,1.42
2019-01-09T20:28:03.036Z,1.39
2019-01-09T20:30:52.935Z,1.31
2019-01-09T20:34:01.903Z,1.30
2019-01-09T20:39:34.675Z,0.91
2019-01-09T20:42:43.549Z,1.04
2019-01-09T20:45:35.483Z,1.12
2019-01-09T20:48:25.562Z,1.12
2019-01-09T20:51:08.999Z,1.07
2019-01-09T20:53:58.717Z,1.20
2019-01-09T20:56:41.353Z,1.17
2019-01-09T20:59:31.117Z,1.17
2019-01-09T21:02:13.350Z,1.11
2019-01-09T21:05:03.085Z,1.18
2019-01-09T21:07:45.433Z,1.21
2019-01-09T21:10:35.501Z,0.86
2019-01-09T21:13:18.179Z,1.01
2019-01-09T21:16:08.030Z,1.01
2019-01-09T21:18:52.185Z,0.95
2019-01-09T21:21:42.289Z,1.13
2019-01-09T21:27:27.821Z,1.17
2019-01-09T21:30:20.488Z,1.06
2019-01-09T21:33:02.521Z,1.15
2019-01-09T21:38:53.424Z,1.10
2019-01-09T21:41:43.213Z,1.06
2019-01-09T21:44:27.161Z,1.08
2019-01-09T21:47:35.994Z,1.12
2019-01-09T21:50:18.822Z,1.10
2019-01-09T21:53:08.520Z,1.02
2019-01-09T21:55:51.552Z,1.01
2019-01-09T21:58:41.290Z,0.96
2019-01-09T22:01:23.992Z,0.87
2019-01-09T22:04:14.093Z,0.95
2019-01-09T22:06:57.248Z,0.94
2019-01-09T22:09:47.008Z,0.81
2019-01-09T22:12:29.911Z,0.72
2019-01-09T22:15:20.506Z,0.73
2019-01-09T22:18:03.365Z,0.81
2019-01-09T22:20:53.168Z,0.81
2019-01-09T22:23:43.763Z,0.88
2019-01-09T22:26:26.175Z,0.87
2019-01-09T22:29:16.228Z,0.90
2019-01-09T22:35:11.368Z,1.00
2019-01-09T22:38:01.322Z,1.05
2019-01-09T22:40:47.661Z,1.02
2019-01-09T22:43:33.091Z,0.93
2019-01-09T22:46:23.258Z,1.03
2019-01-09T22:49:13.176Z,1.06
2019-01-09T22:52:02.996Z,0.99
2019-01-09T22:57:58.334Z,0.83
2019-01-09T23:00:44.972Z,0.70
2019-01-09T23:03:34.916Z,0.67
2019-01-09T23:06:24.922Z,0.70
2019-01-09T23:09:14.774Z,0.80
2019-01-09T23:12:06.680Z,0.72
2019-01-09T23:14:56.886Z,0.77
2019-01-09T23:20:31.906Z,0.84
2019-01-09T23:23:22.117Z,0.72
2019-01-09T23:26:12.362Z,0.62
2019-01-09T23:28:55.967Z,0.74
2019-01-09T23:31:47.861Z,0.68
2019-01-09T23:37:29.829Z,0.65
2019-01-09T23:40:20.019Z,0.57
2019-01-09T23:43:09.834Z,0.59
2019-01-09T23:45:52.999Z,0.63
2019-01-09T23:48:43.105Z,0.49
2019-01-09T23:51:33.192Z,0.63
2019-01-09T23:54:23.328Z,0.55
2019-01-09T23:57:13.123Z,0.56
